sensor_id;sensor_type;location;lat;lon;timestamp;P1;durP1;ratioP1;P2;durP2;ratioP2
55346;SDS011;41218;55.700;38.270;2023-04-16T00:03:58;7.00;;;2.63;;
55346;SDS011;41218;55.700;38.270;2023-04-16T00:08:58;5.93;;;3.07;;
55346;SDS011;41218;55.700;38.270;2023-04-16T00:13:59;5.60;;;3.13;;
55346;SDS011;41218;55.700;38.270;2023-04-16T00:18:59;6.40;;;2.63;;
55346;SDS011;41218;55.700;38.270;2023-04-16T00:24:00;6.53;;;2.63;;
55346;SDS011;41218;55.700;38.270;2023-04-16T00:29:00;5.63;;;2.63;;
55346;SDS011;41218;55.700;38.270;2023-04-16T00:34:01;7.30;;;2.57;;
55346;SDS011;41218;55.700;38.270;2023-04-16T00:39:01;5.40;;;2.50;;
55346;SDS011;41218;55.700;38.270;2023-04-16T00:44:02;5.30;;;2.40;;
55346;SDS011;41218;55.700;38.270;2023-04-16T00:49:03;5.23;;;2.67;;
55346;SDS011;41218;55.700;38.270;2023-04-16T00:54:03;6.63;;;2.60;;
55346;SDS011;41218;55.700;38.270;2023-04-16T00:59:05;4.47;;;2.45;;
55346;SDS011;41218;55.700;38.270;2023-04-16T01:04:06;5.32;;;3.08;;
55346;SDS011;41218;55.700;38.270;2023-04-16T01:09:08;7.03;;;2.93;;
55346;SDS011;41218;55.700;38.270;2023-04-16T01:14:09;5.18;;;2.60;;
55346;SDS011;41218;55.700;38.270;2023-04-16T01:19:10;6.15;;;2.60;;
55346;SDS011;41218;55.700;38.270;2023-04-16T01:24:11;4.60;;;2.40;;
55346;SDS011;41218;55.700;38.270;2023-04-16T01:29:11;7.40;;;2.83;;
55346;SDS011;41218;55.700;38.270;2023-04-16T01:34:12;7.97;;;2.93;;
55346;SDS011;41218;55.700;38.270;2023-04-16T01:39:12;7.37;;;3.20;;
55346;SDS011;41218;55.700;38.270;2023-04-16T01:44:15;5.07;;;2.60;;
55346;SDS011;41218;55.700;38.270;2023-04-16T01:49:15;5.33;;;2.07;;
55346;SDS011;41218;55.700;38.270;2023-04-16T01:54:16;6.47;;;2.70;;
55346;SDS011;41218;55.700;38.270;2023-04-16T01:59:16;6.80;;;2.80;;
55346;SDS011;41218;55.700;38.270;2023-04-16T02:04:17;5.27;;;2.50;;
55346;SDS011;41218;55.700;38.270;2023-04-16T02:09:18;5.73;;;2.57;;
55346;SDS011;41218;55.700;38.270;2023-04-16T02:14:18;7.53;;;2.70;;
55346;SDS011;41218;55.700;38.270;2023-04-16T02:19:19;6.67;;;2.63;;
55346;SDS011;41218;55.700;38.270;2023-04-16T02:24:20;7.25;;;2.60;;
55346;SDS011;41218;55.700;38.270;2023-04-16T02:29:20;6.53;;;2.83;;
55346;SDS011;41218;55.700;38.270;2023-04-16T02:34:21;6.38;;;2.85;;
55346;SDS011;41218;55.700;38.270;2023-04-16T02:39:22;5.47;;;2.90;;
55346;SDS011;41218;55.700;38.270;2023-04-16T02:44:22;7.88;;;2.75;;
55346;SDS011;41218;55.700;38.270;2023-04-16T02:49:23;6.17;;;2.43;;
55346;SDS011;41218;55.700;38.270;2023-04-16T02:54:23;5.67;;;2.37;;
55346;SDS011;41218;55.700;38.270;2023-04-16T02:59:24;6.00;;;2.57;;
55346;SDS011;41218;55.700;38.270;2023-04-16T03:04:24;4.57;;;2.70;;
55346;SDS011;41218;55.700;38.270;2023-04-16T03:09:25;6.60;;;2.80;;
55346;SDS011;41218;55.700;38.270;2023-04-16T03:14:26;9.48;;;2.67;;
55346;SDS011;41218;55.700;38.270;2023-04-16T03:19:26;6.60;;;2.42;;
55346;SDS011;41218;55.700;38.270;2023-04-16T03:24:27;6.93;;;2.77;;
55346;SDS011;41218;55.700;38.270;2023-04-16T03:29:28;9.57;;;2.63;;
55346;SDS011;41218;55.700;38.270;2023-04-16T03:34:29;6.43;;;2.93;;
55346;SDS011;41218;55.700;38.270;2023-04-16T03:39:29;6.33;;;3.00;;
55346;SDS011;41218;55.700;38.270;2023-04-16T03:44:30;7.20;;;2.77;;
55346;SDS011;41218;55.700;38.270;2023-04-16T03:49:30;6.60;;;2.90;;
55346;SDS011;41218;55.700;38.270;2023-04-16T03:54:31;6.70;;;3.00;;
55346;SDS011;41218;55.700;38.270;2023-04-16T03:59:31;5.67;;;2.77;;
55346;SDS011;41218;55.700;38.270;2023-04-16T04:04:32;5.90;;;2.50;;
55346;SDS011;41218;55.700;38.270;2023-04-16T04:09:32;8.33;;;2.87;;
55346;SDS011;41218;55.700;38.270;2023-04-16T04:14:33;8.80;;;3.40;;
55346;SDS011;41218;55.700;38.270;2023-04-16T04:19:38;7.75;;;2.65;;
55346;SDS011;41218;55.700;38.270;2023-04-16T04:24:39;5.30;;;2.63;;
55346;SDS011;41218;55.700;38.270;2023-04-16T04:29:39;8.83;;;3.00;;
55346;SDS011;41218;55.700;38.270;2023-04-16T04:34:40;7.80;;;3.07;;
55346;SDS011;41218;55.700;38.270;2023-04-16T04:39:40;7.40;;;3.03;;
55346;SDS011;41218;55.700;38.270;2023-04-16T04:44:41;6.33;;;2.90;;
55346;SDS011;41218;55.700;38.270;2023-04-16T04:49:41;7.80;;;2.83;;
55346;SDS011;41218;55.700;38.270;2023-04-16T04:54:42;6.53;;;3.00;;
55346;SDS011;41218;55.700;38.270;2023-04-16T04:59:42;6.50;;;3.10;;
55346;SDS011;41218;55.700;38.270;2023-04-16T05:04:43;9.73;;;3.47;;
55346;SDS011;41218;55.700;38.270;2023-04-16T05:09:43;8.00;;;3.17;;
55346;SDS011;41218;55.700;38.270;2023-04-16T05:14:44;7.87;;;3.00;;
55346;SDS011;41218;55.700;38.270;2023-04-16T05:19:44;7.87;;;2.60;;
55346;SDS011;41218;55.700;38.270;2023-04-16T05:24:45;8.03;;;2.80;;
55346;SDS011;41218;55.700;38.270;2023-04-16T05:29:45;6.47;;;2.57;;
55346;SDS011;41218;55.700;38.270;2023-04-16T05:34:45;6.40;;;2.00;;
55346;SDS011;41218;55.700;38.270;2023-04-16T05:39:46;4.70;;;2.50;;
55346;SDS011;41218;55.700;38.270;2023-04-16T05:44:47;7.20;;;2.60;;
55346;SDS011;41218;55.700;38.270;2023-04-16T05:49:47;8.17;;;2.40;;
55346;SDS011;41218;55.700;38.270;2023-04-16T05:54:47;6.33;;;1.97;;
55346;SDS011;41218;55.700;38.270;2023-04-16T05:59:48;6.00;;;2.20;;
55346;SDS011;41218;55.700;38.270;2023-04-16T06:04:48;4.57;;;2.23;;
55346;SDS011;41218;55.700;38.270;2023-04-16T06:09:49;3.67;;;2.10;;
55346;SDS011;41218;55.700;38.270;2023-04-16T06:14:49;6.90;;;2.13;;
55346;SDS011;41218;55.700;38.270;2023-04-16T06:19:50;3.93;;;1.90;;
55346;SDS011;41218;55.700;38.270;2023-04-16T06:24:51;4.37;;;2.10;;
55346;SDS011;41218;55.700;38.270;2023-04-16T06:34:52;5.60;;;1.83;;
55346;SDS011;41218;55.700;38.270;2023-04-16T06:39:53;3.50;;;1.90;;
55346;SDS011;41218;55.700;38.270;2023-04-16T06:44:53;4.10;;;2.33;;
55346;SDS011;41218;55.700;38.270;2023-04-16T06:49:54;4.00;;;2.40;;
55346;SDS011;41218;55.700;38.270;2023-04-16T06:54:55;4.20;;;2.17;;
55346;SDS011;41218;55.700;38.270;2023-04-16T06:59:55;3.65;;;2.13;;
55346;SDS011;41218;55.700;38.270;2023-04-16T07:04:56;5.70;;;2.83;;
55346;SDS011;41218;55.700;38.270;2023-04-16T07:09:57;5.30;;;2.50;;
55346;SDS011;41218;55.700;38.270;2023-04-16T07:19:58;5.10;;;2.30;;
55346;SDS011;41218;55.700;38.270;2023-04-16T07:24:59;5.77;;;2.50;;
55346;SDS011;41218;55.700;38.270;2023-04-16T07:29:59;4.23;;;2.37;;
55346;SDS011;41218;55.700;38.270;2023-04-16T07:35:00;5.47;;;2.80;;
55346;SDS011;41218;55.700;38.270;2023-04-16T07:40:00;4.90;;;2.40;;
55346;SDS011;41218;55.700;38.270;2023-04-16T07:45:01;4.23;;;2.30;;
55346;SDS011;41218;55.700;38.270;2023-04-16T07:50:01;4.27;;;2.40;;
55346;SDS011;41218;55.700;38.270;2023-04-16T07:55:02;5.13;;;2.37;;
55346;SDS011;41218;55.700;38.270;2023-04-16T08:00:03;4.57;;;1.90;;
55346;SDS011;41218;55.700;38.270;2023-04-16T08:05:04;4.75;;;2.10;;
55346;SDS011;41218;55.700;38.270;2023-04-16T08:10:07;4.55;;;1.80;;
55346;SDS011;41218;55.700;38.270;2023-04-16T08:15:08;4.30;;;1.85;;
55346;SDS011;41218;55.700;38.270;2023-04-16T08:20:09;2.50;;;1.70;;
55346;SDS011;41218;55.700;38.270;2023-04-16T08:25:09;4.15;;;2.00;;
55346;SDS011;41218;55.700;38.270;2023-04-16T08:30:10;4.43;;;2.10;;
55346;SDS011;41218;55.700;38.270;2023-04-16T08:35:11;4.20;;;2.05;;
55346;SDS011;41218;55.700;38.270;2023-04-16T08:40:11;3.20;;;1.97;;
55346;SDS011;41218;55.700;38.270;2023-04-16T08:45:12;3.73;;;2.07;;
55346;SDS011;41218;55.700;38.270;2023-04-16T08:50:15;3.13;;;1.80;;
55346;SDS011;41218;55.700;38.270;2023-04-16T08:55:36;4.40;;;1.80;;
55346;SDS011;41218;55.700;38.270;2023-04-16T09:00:38;3.67;;;1.80;;
55346;SDS011;41218;55.700;38.270;2023-04-16T09:05:40;6.80;;;1.90;;
55346;SDS011;41218;55.700;38.270;2023-04-16T09:10:41;3.83;;;1.80;;
55346;SDS011;41218;55.700;38.270;2023-04-16T09:15:42;4.20;;;1.88;;
55346;SDS011;41218;55.700;38.270;2023-04-16T09:20:43;6.07;;;2.20;;
55346;SDS011;41218;55.700;38.270;2023-04-16T09:25:43;5.27;;;2.30;;
55346;SDS011;41218;55.700;38.270;2023-04-16T09:30:44;3.73;;;1.93;;
55346;SDS011;41218;55.700;38.270;2023-04-16T09:35:45;5.30;;;2.40;;
55346;SDS011;41218;55.700;38.270;2023-04-16T09:40:47;5.45;;;2.50;;
55346;SDS011;41218;55.700;38.270;2023-04-16T09:46:05;5.78;;;2.65;;
55346;SDS011;41218;55.700;38.270;2023-04-16T09:51:06;4.93;;;2.80;;
55346;SDS011;41218;55.700;38.270;2023-04-16T09:56:07;4.17;;;2.40;;
55346;SDS011;41218;55.700;38.270;2023-04-16T10:01:09;7.35;;;2.90;;
55346;SDS011;41218;55.700;38.270;2023-04-16T10:06:15;7.22;;;2.47;;
55346;SDS011;41218;55.700;38.270;2023-04-16T10:11:20;7.95;;;2.60;;
55346;SDS011;41218;55.700;38.270;2023-04-16T10:16:20;4.87;;;2.63;;
55346;SDS011;41218;55.700;38.270;2023-04-16T10:21:22;3.72;;;2.15;;
55346;SDS011;41218;55.700;38.270;2023-04-16T10:26:23;5.05;;;2.60;;
55346;SDS011;41218;55.700;38.270;2023-04-16T10:31:23;5.68;;;2.70;;
55346;SDS011;41218;55.700;38.270;2023-04-16T10:36:26;5.40;;;2.63;;
55346;SDS011;41218;55.700;38.270;2023-04-16T10:41:26;5.20;;;2.67;;
55346;SDS011;41218;55.700;38.270;2023-04-16T10:46:31;4.28;;;2.45;;
55346;SDS011;41218;55.700;38.270;2023-04-16T10:51:34;5.47;;;2.90;;
55346;SDS011;41218;55.700;38.270;2023-04-16T10:56:35;5.25;;;3.40;;
55346;SDS011;41218;55.700;38.270;2023-04-16T11:01:37;4.80;;;2.70;;
55346;SDS011;41218;55.700;38.270;2023-04-16T11:06:41;6.25;;;3.00;;
55346;SDS011;41218;55.700;38.270;2023-04-16T11:12:22;7.43;;;3.38;;
55346;SDS011;41218;55.700;38.270;2023-04-16T11:17:30;6.65;;;3.40;;
55346;SDS011;41218;55.700;38.270;2023-04-16T11:22:38;6.05;;;2.83;;
55346;SDS011;41218;55.700;38.270;2023-04-16T11:27:39;4.00;;;2.20;;
55346;SDS011;41218;55.700;38.270;2023-04-16T11:32:40;4.75;;;2.40;;
55346;SDS011;41218;55.700;38.270;2023-04-16T11:37:40;3.97;;;2.03;;
55346;SDS011;41218;55.700;38.270;2023-04-16T11:42:41;5.95;;;2.70;;
55346;SDS011;41218;55.700;38.270;2023-04-16T11:52:51;3.80;;;2.10;;
55346;SDS011;41218;55.700;38.270;2023-04-16T11:57:56;2.50;;;1.60;;
55346;SDS011;41218;55.700;38.270;2023-04-16T12:02:56;3.80;;;2.40;;
55346;SDS011;41218;55.700;38.270;2023-04-16T12:07:58;3.75;;;2.30;;
55346;SDS011;41218;55.700;38.270;2023-04-16T12:13:09;4.22;;;2.33;;
55346;SDS011;41218;55.700;38.270;2023-04-16T12:18:14;6.00;;;2.58;;
55346;SDS011;41218;55.700;38.270;2023-04-16T12:28:42;6.00;;;2.50;;
55346;SDS011;41218;55.700;38.270;2023-04-16T12:33:42;5.17;;;2.40;;
55346;SDS011;41218;55.700;38.270;2023-04-16T12:38:43;4.53;;;2.63;;
55346;SDS011;41218;55.700;38.270;2023-04-16T12:43:43;5.03;;;2.87;;
55346;SDS011;41218;55.700;38.270;2023-04-16T12:48:44;4.73;;;2.90;;
55346;SDS011;41218;55.700;38.270;2023-04-16T12:53:44;4.75;;;2.83;;
55346;SDS011;41218;55.700;38.270;2023-04-16T12:58:45;5.50;;;2.65;;
55346;SDS011;41218;55.700;38.270;2023-04-16T13:03:45;5.87;;;2.50;;
55346;SDS011;41218;55.700;38.270;2023-04-16T13:08:46;5.50;;;2.55;;
55346;SDS011;41218;55.700;38.270;2023-04-16T13:13:47;7.50;;;3.10;;
55346;SDS011;41218;55.700;38.270;2023-04-16T13:18:47;6.60;;;2.50;;
55346;SDS011;41218;55.700;38.270;2023-04-16T13:23:48;6.03;;;2.70;;
55346;SDS011;41218;55.700;38.270;2023-04-16T13:28:48;4.80;;;2.70;;
55346;SDS011;41218;55.700;38.270;2023-04-16T13:33:49;6.37;;;2.73;;
55346;SDS011;41218;55.700;38.270;2023-04-16T13:38:50;5.65;;;2.53;;
55346;SDS011;41218;55.700;38.270;2023-04-16T13:43:50;5.57;;;2.70;;
55346;SDS011;41218;55.700;38.270;2023-04-16T13:48:51;4.80;;;2.50;;
55346;SDS011;41218;55.700;38.270;2023-04-16T13:53:53;5.97;;;2.72;;
55346;SDS011;41218;55.700;38.270;2023-04-16T13:58:54;5.18;;;2.80;;
55346;SDS011;41218;55.700;38.270;2023-04-16T14:03:55;4.20;;;2.73;;
55346;SDS011;41218;55.700;38.270;2023-04-16T14:08:55;4.67;;;2.80;;
55346;SDS011;41218;55.700;38.270;2023-04-16T14:13:56;6.67;;;2.70;;
55346;SDS011;41218;55.700;38.270;2023-04-16T14:18:57;4.18;;;2.67;;
55346;SDS011;41218;55.700;38.270;2023-04-16T14:23:57;4.93;;;2.50;;
55346;SDS011;41218;55.700;38.270;2023-04-16T14:28:58;4.83;;;2.53;;
55346;SDS011;41218;55.700;38.270;2023-04-16T14:33:58;4.57;;;2.93;;
55346;SDS011;41218;55.700;38.270;2023-04-16T14:38:59;5.40;;;3.13;;
55346;SDS011;41218;55.700;38.270;2023-04-16T14:43:59;6.70;;;3.30;;
55346;SDS011;41218;55.700;38.270;2023-04-16T14:49:00;4.65;;;2.90;;
55346;SDS011;41218;55.700;38.270;2023-04-16T14:54:01;4.60;;;2.80;;
55346;SDS011;41218;55.700;38.270;2023-04-16T14:59:01;6.95;;;2.90;;
55346;SDS011;41218;55.700;38.270;2023-04-16T15:04:02;5.65;;;2.85;;
55346;SDS011;41218;55.700;38.270;2023-04-16T15:09:02;5.57;;;2.77;;
55346;SDS011;41218;55.700;38.270;2023-04-16T15:14:03;5.57;;;3.17;;
55346;SDS011;41218;55.700;38.270;2023-04-16T15:19:04;5.60;;;3.08;;
55346;SDS011;41218;55.700;38.270;2023-04-16T15:24:05;7.80;;;4.07;;
55346;SDS011;41218;55.700;38.270;2023-04-16T15:29:05;6.97;;;3.70;;
55346;SDS011;41218;55.700;38.270;2023-04-16T15:34:06;9.60;;;4.18;;
55346;SDS011;41218;55.700;38.270;2023-04-16T15:39:07;7.60;;;4.23;;
55346;SDS011;41218;55.700;38.270;2023-04-16T15:44:08;6.20;;;3.35;;
55346;SDS011;41218;55.700;38.270;2023-04-16T15:49:09;6.18;;;3.22;;
55346;SDS011;41218;55.700;38.270;2023-04-16T15:54:10;13.30;;;5.40;;
55346;SDS011;41218;55.700;38.270;2023-04-16T15:59:10;20.47;;;9.93;;
55346;SDS011;41218;55.700;38.270;2023-04-16T16:04:11;14.53;;;5.83;;
55346;SDS011;41218;55.700;38.270;2023-04-16T16:09:11;14.70;;;7.80;;
55346;SDS011;41218;55.700;38.270;2023-04-16T16:14:12;12.23;;;5.43;;
55346;SDS011;41218;55.700;38.270;2023-04-16T16:19:13;6.35;;;3.50;;
55346;SDS011;41218;55.700;38.270;2023-04-16T16:24:13;5.53;;;2.95;;
55346;SDS011;41218;55.700;38.270;2023-04-16T16:29:14;5.20;;;2.88;;
55346;SDS011;41218;55.700;38.270;2023-04-16T16:34:15;4.80;;;2.90;;
55346;SDS011;41218;55.700;38.270;2023-04-16T16:39:15;5.30;;;2.90;;
55346;SDS011;41218;55.700;38.270;2023-04-16T16:44:16;4.47;;;2.43;;
55346;SDS011;41218;55.700;38.270;2023-04-16T16:49:20;6.45;;;2.55;;
55346;SDS011;41218;55.700;38.270;2023-04-16T16:54:21;6.73;;;2.63;;
55346;SDS011;41218;55.700;38.270;2023-04-16T16:59:21;4.90;;;2.50;;
55346;SDS011;41218;55.700;38.270;2023-04-16T17:04:22;6.17;;;2.97;;
55346;SDS011;41218;55.700;38.270;2023-04-16T17:09:22;4.60;;;2.73;;
55346;SDS011;41218;55.700;38.270;2023-04-16T17:14:23;5.07;;;2.43;;
55346;SDS011;41218;55.700;38.270;2023-04-16T17:19:23;6.77;;;3.30;;
55346;SDS011;41218;55.700;38.270;2023-04-16T17:24:24;6.22;;;2.83;;
55346;SDS011;41218;55.700;38.270;2023-04-16T17:29:25;5.50;;;2.50;;
55346;SDS011;41218;55.700;38.270;2023-04-16T17:34:26;5.97;;;2.53;;
55346;SDS011;41218;55.700;38.270;2023-04-16T17:39:27;5.82;;;2.70;;
55346;SDS011;41218;55.700;38.270;2023-04-16T17:44:27;9.77;;;2.73;;
55346;SDS011;41218;55.700;38.270;2023-04-16T17:49:28;5.93;;;2.90;;
55346;SDS011;41218;55.700;38.270;2023-04-16T17:54:28;5.07;;;2.80;;
55346;SDS011;41218;55.700;38.270;2023-04-16T17:59:29;5.38;;;2.90;;
55346;SDS011;41218;55.700;38.270;2023-04-16T18:04:29;5.17;;;2.73;;
55346;SDS011;41218;55.700;38.270;2023-04-16T18:09:30;4.53;;;3.00;;
55346;SDS011;41218;55.700;38.270;2023-04-16T18:14:34;6.73;;;3.20;;
55346;SDS011;41218;55.700;38.270;2023-04-16T18:19:36;8.10;;;3.10;;
55346;SDS011;41218;55.700;38.270;2023-04-16T18:24:38;6.05;;;3.00;;
55346;SDS011;41218;55.700;38.270;2023-04-16T18:29:39;6.40;;;2.93;;
55346;SDS011;41218;55.700;38.270;2023-04-16T18:34:39;5.53;;;2.97;;
55346;SDS011;41218;55.700;38.270;2023-04-16T18:39:40;8.77;;;3.47;;
55346;SDS011;41218;55.700;38.270;2023-04-16T18:44:40;6.23;;;3.27;;
55346;SDS011;41218;55.700;38.270;2023-04-16T18:49:41;5.90;;;3.27;;
55346;SDS011;41218;55.700;38.270;2023-04-16T18:54:41;7.43;;;3.30;;
55346;SDS011;41218;55.700;38.270;2023-04-16T18:59:42;10.02;;;4.10;;
55346;SDS011;41218;55.700;38.270;2023-04-16T19:04:43;6.43;;;3.73;;
55346;SDS011;41218;55.700;38.270;2023-04-16T19:09:43;6.80;;;3.50;;
55346;SDS011;41218;55.700;38.270;2023-04-16T19:14:44;9.83;;;4.60;;
55346;SDS011;41218;55.700;38.270;2023-04-16T19:19:44;8.10;;;3.90;;
55346;SDS011;41218;55.700;38.270;2023-04-16T19:24:45;10.27;;;3.77;;
55346;SDS011;41218;55.700;38.270;2023-04-16T19:29:45;7.53;;;3.90;;
55346;SDS011;41218;55.700;38.270;2023-04-16T19:34:46;8.82;;;3.83;;
55346;SDS011;41218;55.700;38.270;2023-04-16T19:39:47;8.17;;;3.80;;
55346;SDS011;41218;55.700;38.270;2023-04-16T19:44:47;7.83;;;3.43;;
55346;SDS011;41218;55.700;38.270;2023-04-16T19:49:48;7.47;;;4.17;;
55346;SDS011;41218;55.700;38.270;2023-04-16T19:54:48;8.13;;;4.50;;
55346;SDS011;41218;55.700;38.270;2023-04-16T19:59:49;9.80;;;4.47;;
55346;SDS011;41218;55.700;38.270;2023-04-16T20:04:49;10.00;;;4.70;;
55346;SDS011;41218;55.700;38.270;2023-04-16T20:09:52;9.98;;;4.47;;
55346;SDS011;41218;55.700;38.270;2023-04-16T20:14:52;10.47;;;4.20;;
55346;SDS011;41218;55.700;38.270;2023-04-16T20:19:53;9.37;;;5.10;;
55346;SDS011;41218;55.700;38.270;2023-04-16T20:24:56;9.85;;;4.78;;
55346;SDS011;41218;55.700;38.270;2023-04-16T20:29:57;9.70;;;5.33;;
55346;SDS011;41218;55.700;38.270;2023-04-16T20:34:58;9.73;;;4.82;;
55346;SDS011;41218;55.700;38.270;2023-04-16T20:39:58;13.07;;;5.67;;
55346;SDS011;41218;55.700;38.270;2023-04-16T20:44:59;10.43;;;5.33;;
55346;SDS011;41218;55.700;38.270;2023-04-16T20:50:00;11.67;;;5.33;;
55346;SDS011;41218;55.700;38.270;2023-04-16T20:55:01;10.45;;;5.47;;
55346;SDS011;41218;55.700;38.270;2023-04-16T21:00:01;11.10;;;5.68;;
55346;SDS011;41218;55.700;38.270;2023-04-16T21:05:05;12.73;;;5.70;;
55346;SDS011;41218;55.700;38.270;2023-04-16T21:10:09;14.15;;;6.95;;
55346;SDS011;41218;55.700;38.270;2023-04-16T21:15:10;16.77;;;7.70;;
55346;SDS011;41218;55.700;38.270;2023-04-16T21:20:11;20.43;;;8.93;;
55346;SDS011;41218;55.700;38.270;2023-04-16T21:25:12;17.10;;;7.75;;
55346;SDS011;41218;55.700;38.270;2023-04-16T21:30:13;13.33;;;6.80;;
55346;SDS011;41218;55.700;38.270;2023-04-16T21:35:13;16.93;;;6.53;;
55346;SDS011;41218;55.700;38.270;2023-04-16T21:40:14;18.23;;;7.30;;
55346;SDS011;41218;55.700;38.270;2023-04-16T21:45:15;13.90;;;6.80;;
55346;SDS011;41218;55.700;38.270;2023-04-16T21:50:15;15.47;;;7.60;;
55346;SDS011;41218;55.700;38.270;2023-04-16T21:55:16;16.30;;;7.73;;
55346;SDS011;41218;55.700;38.270;2023-04-16T22:00:16;15.83;;;7.80;;
55346;SDS011;41218;55.700;38.270;2023-04-16T22:05:17;16.17;;;7.87;;
55346;SDS011;41218;55.700;38.270;2023-04-16T22:15:19;20.10;;;9.83;;
55346;SDS011;41218;55.700;38.270;2023-04-16T22:20:20;20.88;;;9.57;;
55346;SDS011;41218;55.700;38.270;2023-04-16T22:25:21;22.67;;;9.38;;
55346;SDS011;41218;55.700;38.270;2023-04-16T22:30:21;18.27;;;9.63;;
55346;SDS011;41218;55.700;38.270;2023-04-16T22:35:22;23.23;;;9.17;;
55346;SDS011;41218;55.700;38.270;2023-04-16T22:40:22;19.97;;;9.07;;
55346;SDS011;41218;55.700;38.270;2023-04-16T22:45:24;18.02;;;8.25;;
55346;SDS011;41218;55.700;38.270;2023-04-16T22:50:25;19.85;;;8.77;;
55346;SDS011;41218;55.700;38.270;2023-04-16T22:55:26;19.90;;;8.43;;
55346;SDS011;41218;55.700;38.270;2023-04-16T23:00:26;19.83;;;9.60;;
55346;SDS011;41218;55.700;38.270;2023-04-16T23:05:27;21.93;;;9.27;;
55346;SDS011;41218;55.700;38.270;2023-04-16T23:10:28;23.00;;;9.87;;
55346;SDS011;41218;55.700;38.270;2023-04-16T23:15:28;18.77;;;9.37;;
55346;SDS011;41218;55.700;38.270;2023-04-16T23:20:29;19.83;;;9.50;;
55346;SDS011;41218;55.700;38.270;2023-04-16T23:25:29;19.20;;;9.30;;
55346;SDS011;41218;55.700;38.270;2023-04-16T23:30:30;20.35;;;8.77;;
55346;SDS011;41218;55.700;38.270;2023-04-16T23:35:31;21.20;;;9.37;;
55346;SDS011;41218;55.700;38.270;2023-04-16T23:40:31;20.13;;;9.27;;
55346;SDS011;41218;55.700;38.270;2023-04-16T23:45:32;19.37;;;9.23;;
55346;SDS011;41218;55.700;38.270;2023-04-16T23:50:32;22.87;;;9.90;;
55346;SDS011;41218;55.700;38.270;2023-04-16T23:55:33;21.77;;;10.23;;
